SAAJ/JNI METAR and TAF weather

Enter ICAO airport designator
Station Type Date Time Source
SAAJ METAR 2018/11/09 20:10 UTC NOAA

SAAJ 092010Z 36022G39KT 6000 TS DS SCT040 FEW045CB 32/19 Q1003


Station Type Date Time Source
SAAJ Decoded METAR 2018/11/09 20:10 UTC NOAA

Junin Aerodrome, Argentina (SAAJ) 34-33S 060-55W 81M
Nov 09, 2018 - 03:10 PM EST / 2018.11.09 2010 UTC
Wind: from the N (360 degrees) at 25 MPH (22 KT) gusting to 45 MPH (39 KT):0
Visibility: 3 mile(s):0
Sky conditions: partly cloudy
Weather: thunder; duststorm; Cumulonimbus clouds observed
Temperature: 89 F (32 C)
Dew Point: 66 F (19 C)
Relative Humidity: 46%
Pressure (altimeter): 29.62 in. Hg (1003 hPa)
ob: SAAJ 092010Z 36022G39KT 6000 TS DS SCT040 FEW045CB 32/19 Q1003
cycle: 20

Station Type Date Time Source
SAAJ TAF UTC NOAA

Error!


Example: see airport list